Time;durP1;ratioP1;P1;durP2;ratioP2;P2;SDS_P1;SDS_P2;PMS_P1;PMS_P2;Temp;Humidity;BMP_temperature;BMP_pressure;BME280_temperature;BME280_humidity;BME280_pressure;Samples;Min_cycle;Max_cycle;Signal;HPM_P1;HPM_P2
2022/02/28 00:01:41;;;;;;;40.83;16.10;;;;;;;;;;751902;183;631565;-59
2022/02/28 00:04:07;;;;;;;28.77;16.73;;;;;;;;;;766176;184;629953;-60
2022/02/28 00:06:33;;;;;;;27.33;14.00;;;;;;;;;;770129;180;617183;-59
2022/02/28 00:08:59;;;;;;;34.50;18.80;;;;;;;;;;749142;184;651862;-60
2022/02/28 00:11:25;;;;;;;34.00;17.03;;;;;;;;;;749857;184;637344;-60
2022/02/28 00:13:51;;;;;;;27.70;13.73;;;;;;;;;;752786;185;635118;-60
2022/02/28 00:16:16;;;;;;;18.10;8.53;;;;;;;;;;755201;183;615189;-59
2022/02/28 00:18:42;;;;;;;29.50;15.93;;;;;;;;;;757340;184;624959;-60
2022/02/28 00:21:08;;;;;;;32.63;15.70;;;;;;;;;;764665;184;615037;-60
2022/02/28 00:23:34;;;;;;;23.60;13.00;;;;;;;;;;754291;184;626118;-59
2022/02/28 00:26:01;;;;;;;29.60;16.33;;;;;;;;;;755923;183;620008;-60
2022/02/28 00:28:26;;;;;;;36.13;15.57;;;;;;;;;;766473;184;629938;-60
2022/02/28 00:30:52;;;;;;;32.70;16.03;;;;;;;;;;750793;185;632606;-60
2022/02/28 00:33:17;;;;;;;34.97;14.17;;;;;;;;;;758321;184;627043;-60
2022/02/28 00:35:43;;;;;;;29.70;14.83;;;;;;;;;;766842;182;647524;-59
2022/02/28 00:38:09;;;;;;;31.40;14.17;;;;;;;;;;766308;183;637847;-60
2022/02/28 00:40:35;;;;;;;35.60;18.17;;;;;;;;;;754728;183;634683;-60
2022/02/28 00:43:01;;;;;;;36.23;14.67;;;;;;;;;;763805;183;626647;-60
2022/02/28 00:45:27;;;;;;;43.17;18.37;;;;;;;;;;770052;183;616003;-60
2022/02/28 00:47:52;;;;;;;33.17;17.50;;;;;;;;;;760728;183;630529;-60
2022/02/28 00:50:18;;;;;;;40.67;20.73;;;;;;;;;;752552;184;641591;-60
2022/02/28 00:52:44;;;;;;;43.20;17.93;;;;;;;;;;755791;184;632585;-60
2022/02/28 00:55:10;;;;;;;31.63;15.10;;;;;;;;;;764629;184;638032;-60
2022/02/28 00:57:36;;;;;;;57.70;26.83;;;;;;;;;;761627;184;627455;-60
2022/02/28 01:00:02;;;;;;;48.37;23.53;;;;;;;;;;768265;184;619943;-60
2022/02/28 01:02:27;;;;;;;38.57;21.77;;;;;;;;;;759887;183;627023;-60
2022/02/28 01:04:53;;;;;;;43.67;19.07;;;;;;;;;;752445;183;654380;-60
2022/02/28 01:07:19;;;;;;;52.57;27.67;;;;;;;;;;755946;184;629723;-59
2022/02/28 01:09:45;;;;;;;41.17;20.80;;;;;;;;;;754743;184;622942;-60
2022/02/28 01:12:11;;;;;;;38.03;18.67;;;;;;;;;;753575;184;624919;-59
2022/02/28 01:14:37;;;;;;;34.50;19.20;;;;;;;;;;749621;183;616849;-60
2022/02/28 01:17:03;;;;;;;48.23;20.17;;;;;;;;;;759513;184;618765;-60
2022/02/28 01:19:29;;;;;;;34.67;18.70;;;;;;;;;;751655;184;615909;-60
2022/02/28 01:21:54;;;;;;;43.67;21.30;;;;;;;;;;754525;185;616692;-60
2022/02/28 01:24:20;;;;;;;42.17;21.53;;;;;;;;;;757066;184;628153;-60
2022/02/28 01:26:48;;;;;;;43.60;21.80;;;;;;;;;;746115;185;624609;-61
2022/02/28 01:29:12;;;;;;;37.93;20.97;;;;;;;;;;754612;184;624987;-61
2022/02/28 01:31:38;;;;;;;44.33;22.23;;;;;;;;;;749203;184;633919;-61
2022/02/28 01:34:04;;;;;;;37.23;17.97;;;;;;;;;;757143;184;617025;-62
2022/02/28 01:36:29;;;;;;;39.50;21.70;;;;;;;;;;748360;183;628880;-62
2022/02/28 01:38:55;;;;;;;46.17;23.33;;;;;;;;;;748541;184;619027;-62
2022/02/28 01:41:21;;;;;;;39.87;19.47;;;;;;;;;;761485;184;619172;-62
2022/02/28 01:43:47;;;;;;;49.73;23.77;;;;;;;;;;759656;184;629536;-62
2022/02/28 01:46:13;;;;;;;48.17;23.33;;;;;;;;;;756085;182;654327;-62
2022/02/28 01:48:39;;;;;;;44.40;22.40;;;;;;;;;;762275;184;617220;-65
2022/02/28 01:51:05;;;;;;;54.53;23.87;;;;;;;;;;756549;184;633845;-63
2022/02/28 01:53:30;;;;;;;50.30;24.77;;;;;;;;;;756817;183;619660;-62
2022/02/28 01:55:56;;;;;;;40.33;22.00;;;;;;;;;;758333;183;630873;-63
2022/02/28 01:58:22;;;;;;;55.93;23.17;;;;;;;;;;756360;183;624316;-63
2022/02/28 02:00:48;;;;;;;47.07;23.97;;;;;;;;;;755459;183;624455;-62
2022/02/28 02:03:14;;;;;;;54.37;23.23;;;;;;;;;;753730;184;633723;-63
2022/02/28 02:05:40;;;;;;;45.10;21.17;;;;;;;;;;763585;184;632340;-63
2022/02/28 02:08:05;;;;;;;40.13;21.63;;;;;;;;;;757993;184;644378;-63
2022/02/28 02:10:31;;;;;;;44.97;23.63;;;;;;;;;;755633;184;614848;-63
2022/02/28 02:12:57;;;;;;;51.33;26.13;;;;;;;;;;756000;183;678478;-63
2022/02/28 02:15:23;;;;;;;42.13;22.17;;;;;;;;;;762614;183;633072;-62
2022/02/28 02:17:49;;;;;;;36.77;19.83;;;;;;;;;;753730;183;637695;-63
2022/02/28 02:20:32;;;;;;;50.33;24.40;;;;;;;;;;759565;183;625105;-62
2022/02/28 02:22:58;;;;;;;48.40;26.17;;;;;;;;;;755669;183;666053;-62
2022/02/28 02:25:24;;;;;;;44.60;22.87;;;;;;;;;;749677;184;622321;-63
2022/02/28 02:27:50;;;;;;;51.33;26.40;;;;;;;;;;763911;184;631772;-62
2022/02/28 02:30:17;;;;;;;46.30;24.20;;;;;;;;;;751003;184;615177;-62
2022/02/28 02:32:42;;;;;;;45.60;25.13;;;;;;;;;;754857;184;613912;-62
2022/02/28 02:35:08;;;;;;;51.63;27.13;;;;;;;;;;752636;184;641818;-62
2022/02/28 02:37:33;;;;;;;42.13;22.53;;;;;;;;;;753112;184;624760;-63
2022/02/28 02:39:59;;;;;;;43.37;22.00;;;;;;;;;;760929;184;627468;-63
2022/02/28 02:42:25;;;;;;;48.10;23.93;;;;;;;;;;759514;184;628284;-63
2022/02/28 02:44:51;;;;;;;39.40;21.80;;;;;;;;;;752185;186;628985;-63
2022/02/28 02:47:17;;;;;;;47.10;28.33;;;;;;;;;;759136;185;623279;-63
2022/02/28 02:49:43;;;;;;;56.30;30.63;;;;;;;;;;750915;185;638823;-63
2022/02/28 02:52:08;;;;;;;48.63;25.53;;;;;;;;;;754225;185;630615;-63
2022/02/28 02:54:34;;;;;;;47.03;23.13;;;;;;;;;;749386;183;619387;-63
2022/02/28 02:57:00;;;;;;;45.07;24.57;;;;;;;;;;775255;181;625404;-63
2022/02/28 02:59:26;;;;;;;44.30;21.37;;;;;;;;;;762464;183;617047;-63
2022/02/28 03:01:52;;;;;;;74.37;25.50;;;;;;;;;;765681;183;630979;-63
2022/02/28 03:04:18;;;;;;;49.10;24.57;;;;;;;;;;752464;184;619609;-63
2022/02/28 03:06:44;;;;;;;57.33;25.37;;;;;;;;;;753015;183;624931;-63
2022/02/28 03:09:12;;;;;;;53.20;28.13;;;;;;;;;;752533;183;634406;-62
2022/02/28 03:11:38;;;;;;;54.00;26.37;;;;;;;;;;762809;184;628448;-62
2022/02/28 03:14:04;;;;;;;51.53;28.00;;;;;;;;;;763083;184;635398;-62
2022/02/28 03:16:30;;;;;;;45.27;21.50;;;;;;;;;;760544;184;628183;-63
2022/02/28 03:18:55;;;;;;;58.93;29.23;;;;;;;;;;751606;186;631909;-63
2022/02/28 03:21:21;;;;;;;59.50;27.80;;;;;;;;;;757383;183;638905;-63
2022/02/28 03:23:47;;;;;;;62.47;31.60;;;;;;;;;;751857;184;621344;-64
2022/02/28 03:26:13;;;;;;;62.73;31.20;;;;;;;;;;761202;184;633678;-64
2022/02/28 03:28:39;;;;;;;50.73;28.20;;;;;;;;;;761713;184;635954;-63
2022/02/28 03:31:05;;;;;;;61.13;31.87;;;;;;;;;;751252;184;636416;-64
2022/02/28 03:33:31;;;;;;;59.95;28.50;;;;;;;;;;753298;183;632369;-63
2022/02/28 03:35:56;;;;;;;54.33;28.47;;;;;;;;;;760781;183;619096;-63
2022/02/28 03:38:22;;;;;;;48.63;25.27;;;;;;;;;;748419;184;625774;-66
2022/02/28 03:40:48;;;;;;;64.40;29.47;;;;;;;;;;748910;184;622305;-64
2022/02/28 03:43:14;;;;;;;67.73;32.27;;;;;;;;;;755826;183;635051;-64
2022/02/28 03:45:40;;;;;;;56.60;29.00;;;;;;;;;;763124;183;634511;-65
2022/02/28 03:48:06;;;;;;;55.17;26.40;;;;;;;;;;750850;184;639547;-64
2022/02/28 03:50:31;;;;;;;61.47;30.90;;;;;;;;;;752313;184;620769;-64
2022/02/28 03:52:57;;;;;;;70.30;28.77;;;;;;;;;;751008;184;618083;-65
2022/02/28 03:55:23;;;;;;;65.03;31.57;;;;;;;;;;752513;186;639724;-64
2022/02/28 03:57:49;;;;;;;53.87;21.30;;;;;;;;;;753378;184;692831;-65
2022/02/28 04:00:15;;;;;;;66.47;26.77;;;;;;;;;;755597;184;622959;-65
2022/02/28 04:02:41;;;;;;;58.03;30.30;;;;;;;;;;754642;185;624726;-66
2022/02/28 04:05:07;;;;;;;66.78;29.58;;;;;;;;;;762876;184;688855;-66
2022/02/28 04:07:33;;;;;;;63.97;30.27;;;;;;;;;;759625;184;633150;-65
2022/02/28 04:09:58;;;;;;;62.27;28.10;;;;;;;;;;754826;183;637252;-66
2022/02/28 04:12:24;;;;;;;67.67;32.50;;;;;;;;;;763755;183;624867;-65
2022/02/28 04:14:51;;;;;;;71.50;31.67;;;;;;;;;;765083;183;619318;-66
2022/02/28 04:17:16;;;;;;;63.07;29.70;;;;;;;;;;763654;180;614824;-65
2022/02/28 04:19:42;;;;;;;77.10;36.60;;;;;;;;;;753946;183;640966;-65
2022/02/28 04:22:08;;;;;;;67.83;34.50;;;;;;;;;;756688;184;630064;-66
2022/02/28 04:24:33;;;;;;;69.70;31.50;;;;;;;;;;760352;183;623766;-66
2022/02/28 04:26:59;;;;;;;64.77;31.03;;;;;;;;;;760655;183;631534;-66
2022/02/28 04:29:25;;;;;;;60.10;28.60;;;;;;;;;;757393;184;617192;-66
2022/02/28 04:31:51;;;;;;;67.43;30.70;;;;;;;;;;760266;184;615894;-67
2022/02/28 04:34:17;;;;;;;71.93;33.63;;;;;;;;;;758835;183;626543;-65
2022/02/28 04:36:43;;;;;;;66.10;32.10;;;;;;;;;;761586;183;625088;-66
2022/02/28 04:39:08;;;;;;;80.07;37.30;;;;;;;;;;759604;184;617016;-67
2022/02/28 04:41:34;;;;;;;63.63;28.57;;;;;;;;;;755186;184;636078;-67
2022/02/28 04:44:00;;;;;;;143.80;61.60;;;;;;;;;;754673;184;655018;-67
2022/02/28 04:46:26;;;;;;;66.67;27.17;;;;;;;;;;752361;185;640248;-66
2022/02/28 04:48:52;;;;;;;61.57;23.80;;;;;;;;;;757842;184;629063;-66
2022/02/28 04:51:18;;;;;;;81.47;37.80;;;;;;;;;;754078;184;618644;-67
2022/02/28 04:53:43;;;;;;;50.63;23.90;;;;;;;;;;751476;184;631967;-67
2022/02/28 04:56:09;;;;;;;68.13;31.30;;;;;;;;;;754116;186;630185;-66
2022/02/28 04:58:35;;;;;;;81.47;35.10;;;;;;;;;;751354;184;619452;-67
2022/02/28 05:01:01;;;;;;;57.70;28.07;;;;;;;;;;757435;184;634628;-66
2022/02/28 05:03:27;;;;;;;60.87;28.63;;;;;;;;;;758194;184;641395;-67
2022/02/28 05:05:53;;;;;;;86.43;35.90;;;;;;;;;;753423;184;629954;-67
2022/02/28 05:08:19;;;;;;;85.23;36.67;;;;;;;;;;754455;183;632106;-67
2022/02/28 05:10:44;;;;;;;90.77;38.27;;;;;;;;;;755403;184;706397;-67
2022/02/28 05:13:10;;;;;;;61.40;32.27;;;;;;;;;;755042;184;629025;-68
2022/02/28 05:15:36;;;;;;;51.77;26.00;;;;;;;;;;750092;184;633809;-67
2022/02/28 05:18:02;;;;;;;66.97;31.20;;;;;;;;;;755787;184;627232;-67
2022/02/28 05:20:28;;;;;;;70.90;27.40;;;;;;;;;;762101;183;730017;-66
2022/02/28 05:22:54;;;;;;;47.80;20.87;;;;;;;;;;747211;185;623836;-67
2022/02/28 05:25:19;;;;;;;46.97;24.53;;;;;;;;;;761698;184;638649;-67
2022/02/28 05:27:45;;;;;;;57.27;26.97;;;;;;;;;;761322;183;616724;-68
2022/02/28 05:30:11;;;;;;;62.00;30.27;;;;;;;;;;755486;184;631586;-67
2022/02/28 05:32:37;;;;;;;64.67;30.77;;;;;;;;;;757601;183;629025;-68
2022/02/28 05:35:03;;;;;;;76.90;38.03;;;;;;;;;;760537;183;662118;-68
2022/02/28 05:37:29;;;;;;;55.30;31.57;;;;;;;;;;756390;184;634614;-67
2022/02/28 05:39:55;;;;;;;62.37;28.90;;;;;;;;;;754539;184;624395;-67
2022/02/28 05:42:21;;;;;;;77.40;39.57;;;;;;;;;;757190;184;629973;-68
2022/02/28 05:44:47;;;;;;;90.73;44.07;;;;;;;;;;757876;184;625472;-68
2022/02/28 05:47:12;;;;;;;70.30;34.47;;;;;;;;;;755117;184;623915;-68
2022/02/28 05:49:38;;;;;;;77.32;37.90;;;;;;;;;;755172;184;643552;-67
2022/02/28 05:52:04;;;;;;;72.33;35.50;;;;;;;;;;758596;184;623864;-67
2022/02/28 05:54:31;;;;;;;52.50;28.15;;;;;;;;;;754708;184;635564;-69
2022/02/28 05:56:56;;;;;;;77.43;35.90;;;;;;;;;;757463;184;632204;-68
2022/02/28 05:59:22;;;;;;;52.83;24.53;;;;;;;;;;758880;184;616926;-67
2022/02/28 06:01:47;;;;;;;55.07;29.27;;;;;;;;;;755782;184;622161;-67
2022/02/28 06:04:13;;;;;;;60.23;30.67;;;;;;;;;;757019;184;617146;-68
2022/02/28 06:06:40;;;;;;;60.80;33.33;;;;;;;;;;756429;184;629375;-68
2022/02/28 06:09:06;;;;;;;70.47;33.47;;;;;;;;;;753213;183;629486;-68
2022/02/28 06:11:32;;;;;;;40.20;20.83;;;;;;;;;;754141;184;620865;-68
2022/02/28 06:13:58;;;;;;;85.13;48.43;;;;;;;;;;754514;184;683487;-67
2022/02/28 06:16:24;;;;;;;78.63;44.87;;;;;;;;;;760202;185;617738;-67
2022/02/28 06:18:49;;;;;;;83.83;42.97;;;;;;;;;;764012;184;631477;-67
2022/02/28 06:21:15;;;;;;;80.13;41.43;;;;;;;;;;754727;184;623690;-69
2022/02/28 06:23:42;;;;;;;129.57;51.33;;;;;;;;;;761154;183;616701;-67
2022/02/28 06:26:07;;;;;;;112.23;51.93;;;;;;;;;;756140;184;623282;-67
2022/02/28 06:28:33;;;;;;;81.20;34.70;;;;;;;;;;756653;184;618253;-68
2022/02/28 06:30:59;;;;;;;89.03;41.20;;;;;;;;;;759591;184;641412;-67
2022/02/28 06:33:24;;;;;;;107.60;54.93;;;;;;;;;;759530;183;638243;-67
2022/02/28 06:35:50;;;;;;;79.93;37.90;;;;;;;;;;754688;183;628022;-67
2022/02/28 06:38:16;;;;;;;68.27;38.50;;;;;;;;;;756758;184;625961;-67
2022/02/28 06:40:44;;;;;;;70.90;38.13;;;;;;;;;;758624;183;613789;-68
2022/02/28 06:43:08;;;;;;;69.73;32.60;;;;;;;;;;758595;184;630659;-67
2022/02/28 06:45:34;;;;;;;77.30;38.00;;;;;;;;;;755103;184;667131;-68
2022/02/28 06:47:59;;;;;;;74.30;40.67;;;;;;;;;;761417;184;624899;-67
2022/02/28 06:50:25;;;;;;;78.80;40.57;;;;;;;;;;750974;184;641210;-67
2022/02/28 06:52:51;;;;;;;72.97;36.60;;;;;;;;;;753878;184;629607;-68
2022/02/28 06:55:17;;;;;;;67.53;39.23;;;;;;;;;;759391;184;630836;-66
2022/02/28 06:57:43;;;;;;;71.73;39.37;;;;;;;;;;753500;184;628231;-67
2022/02/28 07:00:09;;;;;;;75.27;37.50;;;;;;;;;;755717;184;622120;-66
2022/02/28 07:02:35;;;;;;;67.20;31.03;;;;;;;;;;754216;184;631905;-67
2022/02/28 07:05:01;;;;;;;80.50;38.43;;;;;;;;;;756734;183;639156;-67
2022/02/28 07:07:27;;;;;;;61.67;30.40;;;;;;;;;;754242;184;634333;-67
2022/02/28 07:09:52;;;;;;;62.77;32.50;;;;;;;;;;753663;184;627777;-69
2022/02/28 07:12:18;;;;;;;66.80;34.90;;;;;;;;;;759009;184;627702;-65
2022/02/28 07:14:44;;;;;;;32.17;20.50;;;;;;;;;;754121;184;635651;-67
2022/02/28 07:17:10;;;;;;;74.77;35.67;;;;;;;;;;753022;184;635855;-66
2022/02/28 07:19:36;;;;;;;41.47;22.53;;;;;;;;;;756027;185;633408;-67
2022/02/28 07:22:02;;;;;;;61.00;27.07;;;;;;;;;;758065;184;623680;-67
2022/02/28 07:24:28;;;;;;;70.67;36.33;;;;;;;;;;754580;184;630415;-66
2022/02/28 07:26:53;;;;;;;67.30;37.27;;;;;;;;;;759440;184;613176;-67
2022/02/28 07:29:19;;;;;;;64.10;38.13;;;;;;;;;;755393;184;623091;-66
2022/02/28 07:31:45;;;;;;;50.10;20.87;;;;;;;;;;751563;184;635110;-67
2022/02/28 07:34:11;;;;;;;66.50;27.80;;;;;;;;;;755766;184;618188;-66
2022/02/28 07:36:37;;;;;;;54.20;28.50;;;;;;;;;;759942;184;633638;-67
2022/02/28 07:39:03;;;;;;;72.80;39.10;;;;;;;;;;753044;184;616813;-67
2022/02/28 07:41:28;;;;;;;73.00;34.03;;;;;;;;;;754306;184;627799;-67
2022/02/28 07:43:54;;;;;;;67.93;34.77;;;;;;;;;;759895;182;817508;-67
2022/02/28 07:46:20;;;;;;;73.70;28.00;;;;;;;;;;757174;184;621773;-66
2022/02/28 07:48:46;;;;;;;42.40;24.73;;;;;;;;;;756655;183;632516;-66
2022/02/28 07:51:12;;;;;;;59.27;32.93;;;;;;;;;;760653;183;630101;-67
2022/02/28 07:53:38;;;;;;;48.57;26.10;;;;;;;;;;755972;184;655996;-65
2022/02/28 07:56:04;;;;;;;59.73;32.83;;;;;;;;;;753937;184;631177;-66
2022/02/28 07:58:30;;;;;;;68.10;35.60;;;;;;;;;;756299;184;624847;-65
2022/02/28 08:00:55;;;;;;;50.17;30.83;;;;;;;;;;755158;184;632277;-65
2022/02/28 08:03:22;;;;;;;44.53;24.50;;;;;;;;;;756387;183;624395;-66
2022/02/28 08:05:47;;;;;;;48.60;30.00;;;;;;;;;;757679;184;625142;-65
2022/02/28 08:08:13;;;;;;;54.57;29.13;;;;;;;;;;759499;184;664872;-66
2022/02/28 08:10:39;;;;;;;45.70;25.20;;;;;;;;;;754860;184;634405;-67
2022/02/28 08:13:05;;;;;;;40.70;24.70;;;;;;;;;;757956;184;628621;-65
2022/02/28 08:15:31;;;;;;;50.13;27.20;;;;;;;;;;763215;183;620023;-64
2022/02/28 08:17:56;;;;;;;46.83;25.60;;;;;;;;;;755256;184;625345;-66
2022/02/28 08:20:22;;;;;;;53.63;31.40;;;;;;;;;;752920;184;617295;-66
2022/02/28 08:22:48;;;;;;;68.30;35.03;;;;;;;;;;759532;184;623798;-64
2022/02/28 08:25:14;;;;;;;74.80;35.03;;;;;;;;;;756434;184;622441;-65
2022/02/28 08:27:40;;;;;;;55.33;31.40;;;;;;;;;;759098;184;676206;-65
2022/02/28 08:30:06;;;;;;;60.97;36.60;;;;;;;;;;756273;184;616326;-65
2022/02/28 08:32:32;;;;;;;59.60;35.17;;;;;;;;;;758949;184;629745;-63
2022/02/28 08:34:57;;;;;;;45.43;26.57;;;;;;;;;;754831;184;632002;-63
2022/02/28 08:37:23;;;;;;;67.65;31.83;;;;;;;;;;753419;185;621813;-63
2022/02/28 08:39:49;;;;;;;67.67;36.07;;;;;;;;;;757755;184;636227;-62
2022/02/28 08:42:15;;;;;;;63.33;32.20;;;;;;;;;;756206;184;627506;-60
2022/02/28 08:44:43;;;;;;;62.07;33.67;;;;;;;;;;752761;185;699935;-60
2022/02/28 08:47:07;;;;;;;59.20;33.17;;;;;;;;;;759605;184;620338;-60
2022/02/28 08:49:33;;;;;;;53.03;24.77;;;;;;;;;;756979;183;629722;-60
2022/02/28 08:51:58;;;;;;;57.60;28.67;;;;;;;;;;755513;184;681499;-60
2022/02/28 08:54:24;;;;;;;41.37;23.03;;;;;;;;;;755096;184;639305;-62
2022/02/28 08:56:50;;;;;;;50.77;30.20;;;;;;;;;;761516;183;613548;-61
2022/02/28 08:59:16;;;;;;;70.40;36.03;;;;;;;;;;758955;183;705694;-60
2022/02/28 09:01:42;;;;;;;59.63;32.43;;;;;;;;;;762162;183;627285;-60
2022/02/28 09:04:08;;;;;;;45.37;25.67;;;;;;;;;;760407;183;617952;-61
2022/02/28 09:06:33;;;;;;;55.33;29.60;;;;;;;;;;754584;184;630293;-60
2022/02/28 09:08:59;;;;;;;74.20;38.13;;;;;;;;;;755744;183;634077;-60
2022/02/28 09:11:25;;;;;;;55.97;31.90;;;;;;;;;;755631;184;615036;-60
2022/02/28 09:13:51;;;;;;;56.03;32.53;;;;;;;;;;756421;184;623924;-60
2022/02/28 09:16:17;;;;;;;60.70;31.63;;;;;;;;;;758863;184;628970;-60
2022/02/28 09:18:43;;;;;;;51.83;29.42;;;;;;;;;;757916;184;625268;-60
2022/02/28 09:21:09;;;;;;;28.43;17.97;;;;;;;;;;757927;184;635513;-60
2022/02/28 09:23:34;;;;;;;51.57;16.90;;;;;;;;;;757121;184;634150;-60
2022/02/28 09:26:00;;;;;;;55.53;29.60;;;;;;;;;;753848;184;681783;-60
2022/02/28 09:28:26;;;;;;;53.00;28.90;;;;;;;;;;757156;184;630882;-61
2022/02/28 09:30:53;;;;;;;42.93;22.57;;;;;;;;;;753977;184;662469;-60
2022/02/28 09:33:19;;;;;;;29.60;20.90;;;;;;;;;;752969;184;637364;-60
2022/02/28 09:35:44;;;;;;;45.40;21.70;;;;;;;;;;758511;184;632284;-60
2022/02/28 09:38:09;;;;;;;57.73;26.10;;;;;;;;;;757420;184;623263;-60
2022/02/28 09:40:35;;;;;;;42.10;23.97;;;;;;;;;;754946;184;631700;-60
2022/02/28 09:43:01;;;;;;;32.53;20.67;;;;;;;;;;758295;184;674875;-61
2022/02/28 09:45:27;;;;;;;40.60;21.50;;;;;;;;;;753830;184;630484;-59
2022/02/28 09:47:53;;;;;;;40.73;20.17;;;;;;;;;;753791;184;623499;-60
2022/02/28 09:50:19;;;;;;;48.13;24.57;;;;;;;;;;754335;184;681779;-60
2022/02/28 09:52:45;;;;;;;29.03;16.80;;;;;;;;;;749660;185;651097;-60
2022/02/28 09:55:13;;;;;;;41.70;22.00;;;;;;;;;;758224;184;622437;-60
2022/02/28 09:57:37;;;;;;;38.03;18.17;;;;;;;;;;754336;184;630622;-60
2022/02/28 10:00:03;;;;;;;32.90;15.60;;;;;;;;;;759619;184;627024;-63
2022/02/28 10:02:29;;;;;;;36.07;15.00;;;;;;;;;;754956;184;622310;-59
2022/02/28 10:04:56;;;;;;;28.97;15.93;;;;;;;;;;755360;184;634157;-59
2022/02/28 10:07:21;;;;;;;21.03;11.00;;;;;;;;;;759071;184;657814;-59
2022/02/28 10:09:46;;;;;;;25.07;13.07;;;;;;;;;;757550;183;625366;-59
2022/02/28 10:12:13;;;;;;;23.53;14.37;;;;;;;;;;755572;184;617063;-60
2022/02/28 10:14:38;;;;;;;37.17;20.50;;;;;;;;;;760132;183;629292;-59
2022/02/28 10:17:05;;;;;;;33.67;17.47;;;;;;;;;;760295;184;624011;-60
2022/02/28 10:19:30;;;;;;;30.70;15.73;;;;;;;;;;760631;183;634200;-60
2022/02/28 10:21:56;;;;;;;23.13;14.67;;;;;;;;;;755964;184;637017;-60
2022/02/28 10:24:22;;;;;;;30.80;13.53;;;;;;;;;;757469;183;626546;-60
2022/02/28 10:26:47;;;;;;;42.23;14.90;;;;;;;;;;758100;184;626106;-59
2022/02/28 10:29:13;;;;;;;40.03;12.00;;;;;;;;;;755760;184;640646;-60
2022/02/28 10:31:39;;;;;;;18.40;7.90;;;;;;;;;;757241;184;618019;-60
2022/02/28 10:34:12;;;;;;;25.60;15.03;;;;;;;;;;758621;183;640132;-59
2022/02/28 10:36:37;;;;;;;48.83;23.57;;;;;;;;;;750641;184;628730;-60
2022/02/28 10:39:07;;;;;;;34.73;17.30;;;;;;;;;;746351;184;628266;-60
2022/02/28 10:41:31;;;;;;;31.47;17.20;;;;;;;;;;756286;184;632767;-59
2022/02/28 10:43:55;;;;;;;37.40;17.77;;;;;;;;;;756179;184;649157;-59
2022/02/28 10:46:22;;;;;;;25.43;14.03;;;;;;;;;;756755;184;716644;-60
2022/02/28 10:48:52;;;;;;;26.07;14.10;;;;;;;;;;756809;184;1162087;-60
2022/02/28 10:51:18;;;;;;;34.70;13.20;;;;;;;;;;759433;183;661540;-60
2022/02/28 10:53:44;;;;;;;32.17;15.43;;;;;;;;;;755740;183;642250;-60
2022/02/28 10:56:10;;;;;;;20.60;12.53;;;;;;;;;;757756;183;623948;-60
2022/02/28 10:58:36;;;;;;;24.10;14.53;;;;;;;;;;762795;182;661353;-60
2022/02/28 11:01:04;;;;;;;32.50;17.87;;;;;;;;;;756275;184;615032;-59
2022/02/28 11:03:36;;;;;;;21.03;13.50;;;;;;;;;;752993;184;622830;-60
2022/02/28 11:06:02;;;;;;;22.77;12.53;;;;;;;;;;758582;184;633559;-59
2022/02/28 11:08:27;;;;;;;16.50;11.03;;;;;;;;;;757034;184;631779;-60
2022/02/28 11:10:53;;;;;;;17.62;8.73;;;;;;;;;;756044;184;631832;-59
2022/02/28 11:13:19;;;;;;;20.63;12.80;;;;;;;;;;754932;184;629940;-60
2022/02/28 11:15:46;;;;;;;22.60;11.80;;;;;;;;;;758156;184;640212;-61
2022/02/28 11:18:13;;;;;;;17.27;10.83;;;;;;;;;;755940;181;638320;-60
2022/02/28 11:20:37;;;;;;;16.87;7.10;;;;;;;;;;757648;184;636967;-60
2022/02/28 11:23:04;;;;;;;20.87;8.17;;;;;;;;;;761508;183;623703;-60
2022/02/28 11:25:28;;;;;;;8.90;5.50;;;;;;;;;;756105;184;619156;-60
2022/02/28 11:27:56;;;;;;;16.00;8.30;;;;;;;;;;756876;182;644557;-60
2022/02/28 11:30:23;;;;;;;12.80;7.00;;;;;;;;;;762053;183;617514;-60
2022/02/28 11:32:53;;;;;;;7.20;4.40;;;;;;;;;;755955;184;623980;-60
2022/02/28 11:35:34;;;;;;;9.23;4.80;;;;;;;;;;762858;183;627148;-59
2022/02/28 11:38:00;;;;;;;12.70;7.63;;;;;;;;;;756108;184;634676;-60
2022/02/28 11:40:26;;;;;;;17.83;7.13;;;;;;;;;;755586;184;626521;-60
2022/02/28 11:42:57;;;;;;;9.03;5.10;;;;;;;;;;758504;184;637970;-60
2022/02/28 11:45:23;;;;;;;12.97;6.27;;;;;;;;;;754858;183;630039;-60
2022/02/28 11:47:49;;;;;;;10.60;6.33;;;;;;;;;;757934;183;643808;-60
2022/02/28 11:50:17;;;;;;;11.60;6.73;;;;;;;;;;756404;184;623088;-60
2022/02/28 11:52:41;;;;;;;11.37;4.07;;;;;;;;;;761329;180;682051;-60
2022/02/28 11:55:09;;;;;;;8.90;5.73;;;;;;;;;;759994;183;623818;-60
2022/02/28 11:57:40;;;;;;;4.60;3.20;;;;;;;;;;756160;184;627792;-61
2022/02/28 12:00:06;;;;;;;10.87;4.70;;;;;;;;;;767839;184;616138;-60
2022/02/28 12:02:32;;;;;;;9.87;5.93;;;;;;;;;;757237;184;633460;-60
2022/02/28 12:04:58;;;;;;;7.57;4.17;;;;;;;;;;758750;184;622007;-60
2022/02/28 12:07:26;;;;;;;13.50;5.33;;;;;;;;;;755998;184;644918;-60
2022/02/28 12:09:58;;;;;;;9.53;4.43;;;;;;;;;;751393;185;624918;-60
2022/02/28 12:12:27;;;;;;;5.93;3.17;;;;;;;;;;756376;183;629054;-60
2022/02/28 12:15:07;;;;;;;10.07;5.00;;;;;;;;;;755358;184;633363;-60
2022/02/28 12:17:48;;;;;;;6.03;4.70;;;;;;;;;;753290;184;631629;-60
2022/02/28 12:20:17;;;;;;;7.07;3.63;;;;;;;;;;752003;184;626850;-60
2022/02/28 12:22:48;;;;;;;8.63;4.27;;;;;;;;;;760223;184;616943;-59
2022/02/28 12:25:14;;;;;;;16.07;4.67;;;;;;;;;;762139;183;626275;-61
2022/02/28 12:27:42;;;;;;;7.30;3.90;;;;;;;;;;756216;183;637092;-60
2022/02/28 12:30:12;;;;;;;9.80;4.93;;;;;;;;;;754074;183;769399;-60
2022/02/28 12:32:48;;;;;;;7.20;4.53;;;;;;;;;;759665;183;631724;-60
2022/02/28 12:35:14;;;;;;;5.20;3.33;;;;;;;;;;762657;183;617124;-59
2022/02/28 12:37:40;;;;;;;10.33;4.30;;;;;;;;;;755769;183;632415;-60
2022/02/28 12:40:06;;;;;;;11.23;5.53;;;;;;;;;;753220;183;744526;-60
2022/02/28 12:42:31;;;;;;;8.17;4.50;;;;;;;;;;758638;184;633756;-60
2022/02/28 12:44:57;;;;;;;5.53;3.07;;;;;;;;;;752068;184;679837;-60
2022/02/28 12:47:24;;;;;;;6.87;3.60;;;;;;;;;;757697;184;627544;-60
2022/02/28 12:49:50;;;;;;;7.47;3.47;;;;;;;;;;753530;184;620709;-59
2022/02/28 12:52:17;;;;;;;8.47;4.50;;;;;;;;;;757590;184;633841;-60
2022/02/28 12:54:41;;;;;;;9.40;4.17;;;;;;;;;;756304;183;616859;-60
2022/02/28 12:57:07;;;;;;;9.00;3.70;;;;;;;;;;755143;184;625066;-59
2022/02/28 12:59:36;;;;;;;6.77;2.67;;;;;;;;;;758666;184;627437;-60
2022/02/28 13:02:02;;;;;;;5.70;2.20;;;;;;;;;;746042;184;634158;-60
2022/02/28 13:04:28;;;;;;;4.70;3.40;;;;;;;;;;750761;184;628924;-60
2022/02/28 13:06:55;;;;;;;9.93;3.33;;;;;;;;;;755101;185;766833;-60
2022/02/28 13:09:21;;;;;;;7.37;3.40;;;;;;;;;;763986;184;638052;-60
2022/02/28 13:11:46;;;;;;;6.30;3.27;;;;;;;;;;754750;184;625971;-60
2022/02/28 13:14:12;;;;;;;9.43;2.40;;;;;;;;;;751967;184;624268;-61
2022/02/28 13:16:38;;;;;;;5.97;2.60;;;;;;;;;;756109;184;642866;-59
2022/02/28 13:19:05;;;;;;;7.27;3.60;;;;;;;;;;753664;184;633217;-59
2022/02/28 13:21:31;;;;;;;6.40;2.90;;;;;;;;;;753417;184;640229;-59
2022/02/28 13:24:01;;;;;;;6.07;3.27;;;;;;;;;;758646;184;635314;-59
2022/02/28 13:26:27;;;;;;;6.57;3.50;;;;;;;;;;751831;184;626695;-59
2022/02/28 13:28:53;;;;;;;3.23;1.80;;;;;;;;;;753071;184;629047;-58
2022/02/28 13:31:19;;;;;;;4.47;2.20;;;;;;;;;;754742;184;637571;-59
2022/02/28 13:33:45;;;;;;;5.47;3.03;;;;;;;;;;762114;184;627585;-59
2022/02/28 13:36:10;;;;;;;3.80;2.47;;;;;;;;;;756650;184;615644;-59
2022/02/28 13:38:36;;;;;;;9.03;3.63;;;;;;;;;;756834;184;630084;-62
2022/02/28 13:41:04;;;;;;;25.47;9.33;;;;;;;;;;757561;183;635742;-59
2022/02/28 13:43:28;;;;;;;15.60;10.10;;;;;;;;;;760094;183;703489;-58
2022/02/28 13:45:54;;;;;;;7.43;5.07;;;;;;;;;;755644;183;638815;-60
2022/02/28 13:48:20;;;;;;;7.70;4.30;;;;;;;;;;764096;183;635055;-63
2022/02/28 13:50:46;;;;;;;15.60;6.57;;;;;;;;;;754857;183;624644;-59
2022/02/28 13:53:12;;;;;;;3.90;2.40;;;;;;;;;;759003;184;632463;-58
2022/02/28 13:55:37;;;;;;;5.67;3.43;;;;;;;;;;756215;184;615138;-59
2022/02/28 13:58:04;;;;;;;10.40;4.70;;;;;;;;;;764126;180;633802;-59
2022/02/28 14:00:29;;;;;;;12.03;5.93;;;;;;;;;;756668;184;614924;-59
2022/02/28 14:03:01;;;;;;;9.10;6.00;;;;;;;;;;759071;183;628871;-58